sensor_id;sensor_type;location;lat;lon;timestamp;P1;durP1;ratioP1;P2;durP2;ratioP2
21181;SDS011;10749;46.296;7.524;2023-02-28T00:00:00;9.23;;;6.60;;
21181;SDS011;10749;46.296;7.524;2023-02-28T00:02:34;8.83;;;6.33;;
21181;SDS011;10749;46.296;7.524;2023-02-28T00:04:59;9.10;;;6.77;;
21181;SDS011;10749;46.296;7.524;2023-02-28T00:07:26;8.60;;;6.30;;
21181;SDS011;10749;46.296;7.524;2023-02-28T00:09:52;9.10;;;6.20;;
21181;SDS011;10749;46.296;7.524;2023-02-28T00:12:17;8.57;;;6.87;;
21181;SDS011;10749;46.296;7.524;2023-02-28T00:14:43;9.70;;;7.33;;
21181;SDS011;10749;46.296;7.524;2023-02-28T00:17:08;9.27;;;6.93;;
21181;SDS011;10749;46.296;7.524;2023-02-28T00:19:33;8.60;;;6.13;;
21181;SDS011;10749;46.296;7.524;2023-02-28T00:21:59;7.73;;;6.47;;
21181;SDS011;10749;46.296;7.524;2023-02-28T00:24:24;8.67;;;6.83;;
21181;SDS011;10749;46.296;7.524;2023-02-28T00:26:49;7.67;;;6.57;;
21181;SDS011;10749;46.296;7.524;2023-02-28T00:29:14;7.40;;;6.30;;
21181;SDS011;10749;46.296;7.524;2023-02-28T00:31:40;9.77;;;6.77;;
21181;SDS011;10749;46.296;7.524;2023-02-28T00:34:05;9.17;;;6.97;;
21181;SDS011;10749;46.296;7.524;2023-02-28T00:36:30;7.93;;;6.50;;
21181;SDS011;10749;46.296;7.524;2023-02-28T00:38:55;9.87;;;7.00;;
21181;SDS011;10749;46.296;7.524;2023-02-28T00:41:21;9.13;;;6.60;;
21181;SDS011;10749;46.296;7.524;2023-02-28T00:43:46;10.27;;;6.80;;
21181;SDS011;10749;46.296;7.524;2023-02-28T00:46:11;9.03;;;6.23;;
21181;SDS011;10749;46.296;7.524;2023-02-28T00:48:37;8.43;;;6.60;;
21181;SDS011;10749;46.296;7.524;2023-02-28T00:51:02;7.90;;;6.80;;
21181;SDS011;10749;46.296;7.524;2023-02-28T00:53:28;8.50;;;6.53;;
21181;SDS011;10749;46.296;7.524;2023-02-28T00:55:54;8.30;;;6.73;;
21181;SDS011;10749;46.296;7.524;2023-02-28T00:58:19;8.30;;;6.97;;
21181;SDS011;10749;46.296;7.524;2023-02-28T01:00:44;7.97;;;6.30;;
21181;SDS011;10749;46.296;7.524;2023-02-28T01:03:13;8.97;;;7.00;;
21181;SDS011;10749;46.296;7.524;2023-02-28T01:05:39;9.80;;;6.63;;
21181;SDS011;10749;46.296;7.524;2023-02-28T01:08:05;9.50;;;6.63;;
21181;SDS011;10749;46.296;7.524;2023-02-28T01:10:31;10.50;;;6.97;;
21181;SDS011;10749;46.296;7.524;2023-02-28T01:12:56;8.43;;;6.40;;
21181;SDS011;10749;46.296;7.524;2023-02-28T01:15:22;8.43;;;7.27;;
21181;SDS011;10749;46.296;7.524;2023-02-28T01:17:47;7.73;;;6.70;;
21181;SDS011;10749;46.296;7.524;2023-02-28T01:20:12;7.80;;;6.67;;
21181;SDS011;10749;46.296;7.524;2023-02-28T01:22:38;10.77;;;6.90;;
21181;SDS011;10749;46.296;7.524;2023-02-28T01:25:03;8.70;;;6.67;;
21181;SDS011;10749;46.296;7.524;2023-02-28T01:27:29;9.37;;;6.73;;
21181;SDS011;10749;46.296;7.524;2023-02-28T01:29:54;9.70;;;7.17;;
21181;SDS011;10749;46.296;7.524;2023-02-28T01:32:19;9.87;;;7.07;;
21181;SDS011;10749;46.296;7.524;2023-02-28T01:34:44;9.47;;;6.90;;
21181;SDS011;10749;46.296;7.524;2023-02-28T01:37:10;10.00;;;6.87;;
21181;SDS011;10749;46.296;7.524;2023-02-28T01:39:35;9.40;;;6.97;;
21181;SDS011;10749;46.296;7.524;2023-02-28T01:42:00;8.70;;;6.90;;
21181;SDS011;10749;46.296;7.524;2023-02-28T01:47:18;10.77;;;6.97;;
21181;SDS011;10749;46.296;7.524;2023-02-28T01:49:45;9.83;;;7.17;;
21181;SDS011;10749;46.296;7.524;2023-02-28T01:52:10;9.03;;;6.97;;
21181;SDS011;10749;46.296;7.524;2023-02-28T01:54:43;10.37;;;7.70;;
21181;SDS011;10749;46.296;7.524;2023-02-28T01:57:12;10.20;;;7.13;;
21181;SDS011;10749;46.296;7.524;2023-02-28T01:59:42;9.23;;;6.53;;
21181;SDS011;10749;46.296;7.524;2023-02-28T02:02:14;10.90;;;7.40;;
21181;SDS011;10749;46.296;7.524;2023-02-28T02:04:46;9.33;;;7.47;;
21181;SDS011;10749;46.296;7.524;2023-02-28T02:07:18;10.13;;;6.80;;
21181;SDS011;10749;46.296;7.524;2023-02-28T02:09:44;10.60;;;7.20;;
21181;SDS011;10749;46.296;7.524;2023-02-28T02:12:34;10.80;;;7.13;;
21181;SDS011;10749;46.296;7.524;2023-02-28T02:15:05;8.50;;;6.77;;
21181;SDS011;10749;46.296;7.524;2023-02-28T02:17:40;8.83;;;6.97;;
21181;SDS011;10749;46.296;7.524;2023-02-28T02:25:34;9.83;;;8.17;;
21181;SDS011;10749;46.296;7.524;2023-02-28T02:31:23;9.00;;;6.77;;
21181;SDS011;10749;46.296;7.524;2023-02-28T02:34:06;11.33;;;6.87;;
21181;SDS011;10749;46.296;7.524;2023-02-28T02:36:34;11.30;;;7.73;;
21181;SDS011;10749;46.296;7.524;2023-02-28T02:39:06;9.23;;;7.00;;
21181;SDS011;10749;46.296;7.524;2023-02-28T02:41:59;10.23;;;7.20;;
21181;SDS011;10749;46.296;7.524;2023-02-28T02:47:09;11.77;;;8.00;;
21181;SDS011;10749;46.296;7.524;2023-02-28T02:49:38;9.87;;;7.80;;
21181;SDS011;10749;46.296;7.524;2023-02-28T02:52:08;9.30;;;7.60;;
21181;SDS011;10749;46.296;7.524;2023-02-28T02:54:36;11.83;;;8.57;;
21181;SDS011;10749;46.296;7.524;2023-02-28T02:57:06;9.73;;;7.90;;
21181;SDS011;10749;46.296;7.524;2023-02-28T02:59:36;14.00;;;8.33;;
21181;SDS011;10749;46.296;7.524;2023-02-28T03:02:05;11.23;;;8.30;;
21181;SDS011;10749;46.296;7.524;2023-02-28T03:04:35;10.07;;;8.27;;
21181;SDS011;10749;46.296;7.524;2023-02-28T03:07:07;10.33;;;7.67;;
21181;SDS011;10749;46.296;7.524;2023-02-28T03:09:33;9.50;;;7.53;;
21181;SDS011;10749;46.296;7.524;2023-02-28T03:11:58;10.10;;;7.47;;
21181;SDS011;10749;46.296;7.524;2023-02-28T03:17:35;7.90;;;7.10;;
21181;SDS011;10749;46.296;7.524;2023-02-28T03:23:30;10.17;;;7.70;;
21181;SDS011;10749;46.296;7.524;2023-02-28T03:26:19;9.00;;;7.10;;
21181;SDS011;10749;46.296;7.524;2023-02-28T03:29:01;11.57;;;7.93;;
21181;SDS011;10749;46.296;7.524;2023-02-28T03:31:46;9.20;;;7.40;;
21181;SDS011;10749;46.296;7.524;2023-02-28T03:36:57;9.57;;;7.33;;
21181;SDS011;10749;46.296;7.524;2023-02-28T03:39:30;8.87;;;7.20;;
21181;SDS011;10749;46.296;7.524;2023-02-28T03:42:15;9.93;;;8.03;;
21181;SDS011;10749;46.296;7.524;2023-02-28T03:44:46;11.53;;;7.97;;
21181;SDS011;10749;46.296;7.524;2023-02-28T03:47:39;9.20;;;7.47;;
21181;SDS011;10749;46.296;7.524;2023-02-28T03:50:24;9.80;;;7.67;;
21181;SDS011;10749;46.296;7.524;2023-02-28T03:52:55;10.50;;;7.77;;
21181;SDS011;10749;46.296;7.524;2023-02-28T03:55:26;8.90;;;7.57;;
21181;SDS011;10749;46.296;7.524;2023-02-28T03:58:11;11.53;;;7.90;;
21181;SDS011;10749;46.296;7.524;2023-02-28T04:00:46;10.47;;;7.47;;
21181;SDS011;10749;46.296;7.524;2023-02-28T04:03:18;10.77;;;8.00;;
21181;SDS011;10749;46.296;7.524;2023-02-28T04:05:53;12.73;;;7.97;;
21181;SDS011;10749;46.296;7.524;2023-02-28T04:08:20;9.10;;;7.83;;
21181;SDS011;10749;46.296;7.524;2023-02-28T04:10:48;9.80;;;7.70;;
21181;SDS011;10749;46.296;7.524;2023-02-28T04:13:19;10.77;;;7.97;;
21181;SDS011;10749;46.296;7.524;2023-02-28T04:15:44;10.70;;;7.63;;
21181;SDS011;10749;46.296;7.524;2023-02-28T04:18:09;11.37;;;8.60;;
21181;SDS011;10749;46.296;7.524;2023-02-28T04:20:34;8.20;;;7.20;;
21181;SDS011;10749;46.296;7.524;2023-02-28T04:23:00;9.33;;;7.57;;
21181;SDS011;10749;46.296;7.524;2023-02-28T04:25:25;9.53;;;7.17;;
21181;SDS011;10749;46.296;7.524;2023-02-28T04:27:50;11.47;;;7.70;;
21181;SDS011;10749;46.296;7.524;2023-02-28T04:30:15;8.27;;;7.23;;
21181;SDS011;10749;46.296;7.524;2023-02-28T04:32:41;10.47;;;8.27;;
21181;SDS011;10749;46.296;7.524;2023-02-28T04:35:06;9.60;;;7.90;;
21181;SDS011;10749;46.296;7.524;2023-02-28T04:37:32;10.60;;;7.87;;
21181;SDS011;10749;46.296;7.524;2023-02-28T04:39:59;9.50;;;7.93;;
21181;SDS011;10749;46.296;7.524;2023-02-28T04:42:25;12.17;;;8.20;;
21181;SDS011;10749;46.296;7.524;2023-02-28T04:44:50;10.80;;;8.37;;
21181;SDS011;10749;46.296;7.524;2023-02-28T04:47:15;10.97;;;8.00;;
21181;SDS011;10749;46.296;7.524;2023-02-28T04:49:41;9.47;;;8.03;;
21181;SDS011;10749;46.296;7.524;2023-02-28T04:52:06;11.67;;;8.23;;
21181;SDS011;10749;46.296;7.524;2023-02-28T04:54:32;9.83;;;8.10;;
21181;SDS011;10749;46.296;7.524;2023-02-28T04:56:57;9.30;;;7.60;;
21181;SDS011;10749;46.296;7.524;2023-02-28T04:59:23;11.23;;;8.30;;
21181;SDS011;10749;46.296;7.524;2023-02-28T05:01:48;9.47;;;7.80;;
21181;SDS011;10749;46.296;7.524;2023-02-28T05:04:14;11.83;;;8.27;;
21181;SDS011;10749;46.296;7.524;2023-02-28T05:06:39;9.57;;;8.43;;
21181;SDS011;10749;46.296;7.524;2023-02-28T05:09:05;10.07;;;7.53;;
21181;SDS011;10749;46.296;7.524;2023-02-28T05:11:31;9.80;;;7.10;;
21181;SDS011;10749;46.296;7.524;2023-02-28T05:14:04;9.70;;;7.23;;
21181;SDS011;10749;46.296;7.524;2023-02-28T05:16:32;10.03;;;7.73;;
21181;SDS011;10749;46.296;7.524;2023-02-28T05:18:58;11.20;;;8.50;;
21181;SDS011;10749;46.296;7.524;2023-02-28T05:21:25;11.60;;;8.10;;
21181;SDS011;10749;46.296;7.524;2023-02-28T05:23:51;10.43;;;8.17;;
21181;SDS011;10749;46.296;7.524;2023-02-28T05:26:17;11.87;;;8.23;;
21181;SDS011;10749;46.296;7.524;2023-02-28T05:28:43;10.00;;;8.00;;
21181;SDS011;10749;46.296;7.524;2023-02-28T05:31:11;9.63;;;7.77;;
21181;SDS011;10749;46.296;7.524;2023-02-28T05:33:37;12.43;;;8.07;;
21181;SDS011;10749;46.296;7.524;2023-02-28T05:36:03;11.00;;;8.50;;
21181;SDS011;10749;46.296;7.524;2023-02-28T05:38:29;10.77;;;8.13;;
21181;SDS011;10749;46.296;7.524;2023-02-28T05:40:54;10.63;;;7.70;;
21181;SDS011;10749;46.296;7.524;2023-02-28T05:43:19;10.83;;;8.10;;
21181;SDS011;10749;46.296;7.524;2023-02-28T05:45:45;9.43;;;7.57;;
21181;SDS011;10749;46.296;7.524;2023-02-28T05:48:10;9.60;;;7.80;;
21181;SDS011;10749;46.296;7.524;2023-02-28T05:50:35;12.23;;;9.07;;
21181;SDS011;10749;46.296;7.524;2023-02-28T05:53:01;11.23;;;8.40;;
21181;SDS011;10749;46.296;7.524;2023-02-28T05:55:26;10.80;;;8.43;;
21181;SDS011;10749;46.296;7.524;2023-02-28T05:57:51;10.93;;;8.30;;
21181;SDS011;10749;46.296;7.524;2023-02-28T06:00:17;13.13;;;8.40;;
21181;SDS011;10749;46.296;7.524;2023-02-28T06:02:42;11.87;;;9.30;;
21181;SDS011;10749;46.296;7.524;2023-02-28T06:05:15;12.20;;;8.37;;
21181;SDS011;10749;46.296;7.524;2023-02-28T06:07:42;11.43;;;8.30;;
21181;SDS011;10749;46.296;7.524;2023-02-28T06:10:08;14.17;;;8.67;;
21181;SDS011;10749;46.296;7.524;2023-02-28T06:12:34;11.40;;;8.23;;
21181;SDS011;10749;46.296;7.524;2023-02-28T06:14:59;11.53;;;8.50;;
21181;SDS011;10749;46.296;7.524;2023-02-28T06:17:25;10.93;;;8.33;;
21181;SDS011;10749;46.296;7.524;2023-02-28T06:19:50;13.13;;;8.80;;
21181;SDS011;10749;46.296;7.524;2023-02-28T06:22:15;13.73;;;9.33;;
21181;SDS011;10749;46.296;7.524;2023-02-28T06:24:41;13.43;;;9.97;;
21181;SDS011;10749;46.296;7.524;2023-02-28T06:27:06;14.87;;;8.90;;
21181;SDS011;10749;46.296;7.524;2023-02-28T06:29:32;10.87;;;9.20;;
21181;SDS011;10749;46.296;7.524;2023-02-28T06:31:58;13.50;;;9.03;;
21181;SDS011;10749;46.296;7.524;2023-02-28T06:34:24;13.37;;;9.13;;
21181;SDS011;10749;46.296;7.524;2023-02-28T06:36:50;12.80;;;9.37;;
21181;SDS011;10749;46.296;7.524;2023-02-28T06:39:16;12.20;;;9.63;;
21181;SDS011;10749;46.296;7.524;2023-02-28T06:41:42;12.80;;;9.43;;
21181;SDS011;10749;46.296;7.524;2023-02-28T06:44:14;11.63;;;8.87;;
21181;SDS011;10749;46.296;7.524;2023-02-28T06:46:41;15.33;;;9.50;;
21181;SDS011;10749;46.296;7.524;2023-02-28T06:49:07;10.83;;;9.17;;
21181;SDS011;10749;46.296;7.524;2023-02-28T06:51:34;10.80;;;8.77;;
21181;SDS011;10749;46.296;7.524;2023-02-28T06:54:00;14.10;;;9.97;;
21181;SDS011;10749;46.296;7.524;2023-02-28T06:56:26;11.23;;;9.03;;
21181;SDS011;10749;46.296;7.524;2023-02-28T06:58:51;11.83;;;9.17;;
21181;SDS011;10749;46.296;7.524;2023-02-28T07:01:21;13.37;;;9.77;;
21181;SDS011;10749;46.296;7.524;2023-02-28T07:03:48;13.23;;;8.90;;
21181;SDS011;10749;46.296;7.524;2023-02-28T07:06:17;12.50;;;8.63;;
21181;SDS011;10749;46.296;7.524;2023-02-28T07:08:43;12.83;;;9.33;;
21181;SDS011;10749;46.296;7.524;2023-02-28T07:11:08;13.83;;;9.30;;
21181;SDS011;10749;46.296;7.524;2023-02-28T07:13:33;13.33;;;9.20;;
21181;SDS011;10749;46.296;7.524;2023-02-28T07:15:59;12.77;;;9.33;;
21181;SDS011;10749;46.296;7.524;2023-02-28T07:18:27;15.10;;;9.57;;
21181;SDS011;10749;46.296;7.524;2023-02-28T07:20:53;14.43;;;10.07;;
21181;SDS011;10749;46.296;7.524;2023-02-28T07:23:19;13.63;;;9.63;;
21181;SDS011;10749;46.296;7.524;2023-02-28T07:25:45;14.73;;;9.43;;
21181;SDS011;10749;46.296;7.524;2023-02-28T07:28:10;13.03;;;9.57;;
21181;SDS011;10749;46.296;7.524;2023-02-28T07:30:36;14.13;;;9.70;;
21181;SDS011;10749;46.296;7.524;2023-02-28T07:33:01;17.30;;;9.17;;
21181;SDS011;10749;46.296;7.524;2023-02-28T07:35:26;14.90;;;9.30;;
21181;SDS011;10749;46.296;7.524;2023-02-28T07:37:52;12.23;;;9.27;;
21181;SDS011;10749;46.296;7.524;2023-02-28T07:40:17;13.97;;;10.13;;
21181;SDS011;10749;46.296;7.524;2023-02-28T07:42:43;13.23;;;9.17;;
21181;SDS011;10749;46.296;7.524;2023-02-28T07:45:09;11.83;;;9.13;;
21181;SDS011;10749;46.296;7.524;2023-02-28T07:47:36;11.97;;;9.50;;
21181;SDS011;10749;46.296;7.524;2023-02-28T07:50:06;15.23;;;9.57;;
21181;SDS011;10749;46.296;7.524;2023-02-28T07:52:38;15.07;;;9.63;;
21181;SDS011;10749;46.296;7.524;2023-02-28T07:55:05;14.80;;;9.53;;
21181;SDS011;10749;46.296;7.524;2023-02-28T07:57:31;14.77;;;9.00;;
21181;SDS011;10749;46.296;7.524;2023-02-28T07:59:56;15.83;;;9.90;;
21181;SDS011;10749;46.296;7.524;2023-02-28T08:02:22;10.70;;;8.90;;
21181;SDS011;10749;46.296;7.524;2023-02-28T08:04:47;12.30;;;9.00;;
21181;SDS011;10749;46.296;7.524;2023-02-28T08:07:13;13.30;;;9.50;;
21181;SDS011;10749;46.296;7.524;2023-02-28T08:09:39;12.67;;;9.40;;
21181;SDS011;10749;46.296;7.524;2023-02-28T08:12:05;15.10;;;9.17;;
21181;SDS011;10749;46.296;7.524;2023-02-28T08:14:31;11.73;;;9.50;;
21181;SDS011;10749;46.296;7.524;2023-02-28T08:16:56;11.97;;;9.37;;
21181;SDS011;10749;46.296;7.524;2023-02-28T08:19:22;14.47;;;10.00;;
21181;SDS011;10749;46.296;7.524;2023-02-28T08:21:47;16.37;;;9.00;;
21181;SDS011;10749;46.296;7.524;2023-02-28T08:24:12;12.60;;;9.43;;
21181;SDS011;10749;46.296;7.524;2023-02-28T08:26:37;10.77;;;9.40;;
21181;SDS011;10749;46.296;7.524;2023-02-28T08:29:03;13.80;;;9.83;;
21181;SDS011;10749;46.296;7.524;2023-02-28T08:31:28;12.43;;;9.50;;
21181;SDS011;10749;46.296;7.524;2023-02-28T08:33:53;14.80;;;10.53;;
21181;SDS011;10749;46.296;7.524;2023-02-28T08:36:21;11.47;;;9.50;;
21181;SDS011;10749;46.296;7.524;2023-02-28T08:38:47;11.13;;;8.87;;
21181;SDS011;10749;46.296;7.524;2023-02-28T08:41:12;12.07;;;9.87;;
21181;SDS011;10749;46.296;7.524;2023-02-28T08:43:38;16.50;;;9.60;;
21181;SDS011;10749;46.296;7.524;2023-02-28T08:46:05;16.47;;;10.40;;
21181;SDS011;10749;46.296;7.524;2023-02-28T08:48:32;12.90;;;10.50;;
21181;SDS011;10749;46.296;7.524;2023-02-28T08:51:00;14.73;;;10.03;;
21181;SDS011;10749;46.296;7.524;2023-02-28T08:53:28;13.20;;;10.00;;
21181;SDS011;10749;46.296;7.524;2023-02-28T08:56:00;13.10;;;10.10;;
21181;SDS011;10749;46.296;7.524;2023-02-28T08:58:31;15.93;;;9.07;;
21181;SDS011;10749;46.296;7.524;2023-02-28T09:00:56;13.30;;;9.60;;
21181;SDS011;10749;46.296;7.524;2023-02-28T09:03:22;11.07;;;9.40;;
21181;SDS011;10749;46.296;7.524;2023-02-28T09:05:52;13.67;;;10.20;;
21181;SDS011;10749;46.296;7.524;2023-02-28T09:08:21;13.93;;;9.93;;
21181;SDS011;10749;46.296;7.524;2023-02-28T09:10:46;13.57;;;9.93;;
21181;SDS011;10749;46.296;7.524;2023-02-28T09:13:12;14.40;;;10.03;;
21181;SDS011;10749;46.296;7.524;2023-02-28T09:15:37;12.20;;;9.40;;
21181;SDS011;10749;46.296;7.524;2023-02-28T09:18:03;15.13;;;10.20;;
21181;SDS011;10749;46.296;7.524;2023-02-28T09:20:29;12.90;;;10.30;;
21181;SDS011;10749;46.296;7.524;2023-02-28T09:22:54;12.00;;;9.90;;
21181;SDS011;10749;46.296;7.524;2023-02-28T09:25:20;13.63;;;10.40;;
21181;SDS011;10749;46.296;7.524;2023-02-28T09:27:45;12.50;;;10.03;;
21181;SDS011;10749;46.296;7.524;2023-02-28T09:30:11;15.00;;;10.17;;
21181;SDS011;10749;46.296;7.524;2023-02-28T09:32:37;13.07;;;10.40;;
21181;SDS011;10749;46.296;7.524;2023-02-28T09:35:02;16.70;;;10.33;;
21181;SDS011;10749;46.296;7.524;2023-02-28T09:37:29;13.10;;;10.07;;
21181;SDS011;10749;46.296;7.524;2023-02-28T09:39:55;13.90;;;10.57;;
21181;SDS011;10749;46.296;7.524;2023-02-28T09:42:21;18.90;;;10.33;;
21181;SDS011;10749;46.296;7.524;2023-02-28T09:44:52;13.13;;;10.33;;
21181;SDS011;10749;46.296;7.524;2023-02-28T09:47:29;14.87;;;10.63;;
21181;SDS011;10749;46.296;7.524;2023-02-28T09:49:58;13.83;;;10.43;;
21181;SDS011;10749;46.296;7.524;2023-02-28T09:52:33;13.13;;;10.47;;
21181;SDS011;10749;46.296;7.524;2023-02-28T09:55:18;14.20;;;10.23;;
21181;SDS011;10749;46.296;7.524;2023-02-28T09:57:43;15.37;;;10.30;;
21181;SDS011;10749;46.296;7.524;2023-02-28T10:00:20;13.33;;;9.90;;
21181;SDS011;10749;46.296;7.524;2023-02-28T10:06:02;13.40;;;9.90;;
21181;SDS011;10749;46.296;7.524;2023-02-28T10:08:56;13.00;;;10.03;;
21181;SDS011;10749;46.296;7.524;2023-02-28T10:11:22;10.50;;;8.97;;
21181;SDS011;10749;46.296;7.524;2023-02-28T10:13:51;11.33;;;9.20;;
21181;SDS011;10749;46.296;7.524;2023-02-28T10:16:45;13.13;;;9.27;;
21181;SDS011;10749;46.296;7.524;2023-02-28T10:19:33;12.53;;;7.90;;
21181;SDS011;10749;46.296;7.524;2023-02-28T10:22:08;10.03;;;8.33;;
21181;SDS011;10749;46.296;7.524;2023-02-28T10:24:42;13.57;;;9.60;;
21181;SDS011;10749;46.296;7.524;2023-02-28T10:27:16;12.00;;;8.93;;
21181;SDS011;10749;46.296;7.524;2023-02-28T10:29:44;10.77;;;8.53;;
21181;SDS011;10749;46.296;7.524;2023-02-28T10:32:15;10.60;;;8.70;;
21181;SDS011;10749;46.296;7.524;2023-02-28T10:34:42;13.50;;;8.50;;
21181;SDS011;10749;46.296;7.524;2023-02-28T10:37:08;10.13;;;8.10;;
21181;SDS011;10749;46.296;7.524;2023-02-28T10:39:35;9.47;;;8.20;;
21181;SDS011;10749;46.296;7.524;2023-02-28T10:42:03;10.90;;;8.30;;
21181;SDS011;10749;46.296;7.524;2023-02-28T10:44:29;10.77;;;8.50;;
21181;SDS011;10749;46.296;7.524;2023-02-28T10:46:54;8.83;;;7.93;;
21181;SDS011;10749;46.296;7.524;2023-02-28T10:49:25;9.80;;;8.37;;
21181;SDS011;10749;46.296;7.524;2023-02-28T10:51:57;9.10;;;8.17;;
21181;SDS011;10749;46.296;7.524;2023-02-28T10:54:27;10.70;;;9.00;;
21181;SDS011;10749;46.296;7.524;2023-02-28T10:57:05;11.70;;;8.17;;
21181;SDS011;10749;46.296;7.524;2023-02-28T10:59:34;11.57;;;7.90;;
21181;SDS011;10749;46.296;7.524;2023-02-28T11:02:00;9.67;;;8.03;;
21181;SDS011;10749;46.296;7.524;2023-02-28T11:07:02;10.40;;;8.07;;
21181;SDS011;10749;46.296;7.524;2023-02-28T11:09:33;10.23;;;7.80;;
21181;SDS011;10749;46.296;7.524;2023-02-28T11:12:00;9.23;;;7.67;;
21181;SDS011;10749;46.296;7.524;2023-02-28T11:14:30;9.60;;;8.30;;
21181;SDS011;10749;46.296;7.524;2023-02-28T11:17:00;8.23;;;7.17;;
21181;SDS011;10749;46.296;7.524;2023-02-28T11:19:39;8.43;;;7.53;;
21181;SDS011;10749;46.296;7.524;2023-02-28T11:22:09;9.63;;;7.93;;
21181;SDS011;10749;46.296;7.524;2023-02-28T11:24:42;8.10;;;7.10;;
21181;SDS011;10749;46.296;7.524;2023-02-28T11:27:57;8.73;;;7.03;;
21181;SDS011;10749;46.296;7.524;2023-02-28T11:29:56;8.37;;;6.90;;
21181;SDS011;10749;46.296;7.524;2023-02-28T11:32:24;9.13;;;6.97;;
21181;SDS011;10749;46.296;7.524;2023-02-28T11:37:34;7.20;;;6.50;;
21181;SDS011;10749;46.296;7.524;2023-02-28T11:39:59;8.80;;;6.40;;
21181;SDS011;10749;46.296;7.524;2023-02-28T11:45:15;7.20;;;6.50;;
21181;SDS011;10749;46.296;7.524;2023-02-28T11:56:03;7.77;;;6.27;;
21181;SDS011;10749;46.296;7.524;2023-02-28T11:58:45;7.30;;;5.77;;
21181;SDS011;10749;46.296;7.524;2023-02-28T12:12:34;8.33;;;5.97;;
21181;SDS011;10749;46.296;7.524;2023-02-28T12:26:42;5.37;;;4.87;;
21181;SDS011;10749;46.296;7.524;2023-02-28T12:29:24;6.03;;;5.43;;
21181;SDS011;10749;46.296;7.524;2023-02-28T12:32:09;5.30;;;4.77;;
21181;SDS011;10749;46.296;7.524;2023-02-28T12:37:29;8.70;;;5.40;;
21181;SDS011;10749;46.296;7.524;2023-02-28T12:40:01;6.50;;;5.80;;
21181;SDS011;10749;46.296;7.524;2023-02-28T12:42:35;9.43;;;6.23;;
21181;SDS011;10749;46.296;7.524;2023-02-28T12:45:08;6.77;;;5.63;;
21181;SDS011;10749;46.296;7.524;2023-02-28T12:47:40;9.37;;;6.20;;
21181;SDS011;10749;46.296;7.524;2023-02-28T12:50:10;9.27;;;6.10;;
21181;SDS011;10749;46.296;7.524;2023-02-28T12:58:27;6.87;;;6.17;;
21181;SDS011;10749;46.296;7.524;2023-02-28T13:04:08;10.33;;;7.23;;
21181;SDS011;10749;46.296;7.524;2023-02-28T13:09:56;8.53;;;7.17;;
21181;SDS011;10749;46.296;7.524;2023-02-28T13:12:23;9.37;;;6.93;;
21181;SDS011;10749;46.296;7.524;2023-02-28T13:14:49;10.30;;;7.47;;
21181;SDS011;10749;46.296;7.524;2023-02-28T13:17:19;8.97;;;7.40;;
21181;SDS011;10749;46.296;7.524;2023-02-28T13:22:35;10.13;;;6.63;;
21181;SDS011;10749;46.296;7.524;2023-02-28T13:25:02;8.97;;;7.60;;
21181;SDS011;10749;46.296;7.524;2023-02-28T13:27:52;11.83;;;7.60;;
21181;SDS011;10749;46.296;7.524;2023-02-28T13:38:44;11.50;;;7.67;;
21181;SDS011;10749;46.296;7.524;2023-02-28T13:46:31;9.40;;;7.80;;
21181;SDS011;10749;46.296;7.524;2023-02-28T13:49:17;8.97;;;7.50;;
21181;SDS011;10749;46.296;7.524;2023-02-28T13:51:50;13.60;;;8.07;;
21181;SDS011;10749;46.296;7.524;2023-02-28T13:54:23;8.70;;;7.77;;
21181;SDS011;10749;46.296;7.524;2023-02-28T14:00:16;9.10;;;7.50;;
21181;SDS011;10749;46.296;7.524;2023-02-28T14:05:47;9.53;;;7.73;;
21181;SDS011;10749;46.296;7.524;2023-02-28T14:08:45;8.80;;;7.27;;
21181;SDS011;10749;46.296;7.524;2023-02-28T14:11:25;9.83;;;7.40;;
21181;SDS011;10749;46.296;7.524;2023-02-28T14:13:53;8.30;;;7.10;;
21181;SDS011;10749;46.296;7.524;2023-02-28T14:16:35;8.30;;;7.33;;
21181;SDS011;10749;46.296;7.524;2023-02-28T14:19:22;8.70;;;7.37;;
21181;SDS011;10749;46.296;7.524;2023-02-28T14:22:00;12.40;;;7.50;;
21181;SDS011;10749;46.296;7.524;2023-02-28T14:36:06;9.53;;;8.20;;
21181;SDS011;10749;46.296;7.524;2023-02-28T14:38:42;9.27;;;7.67;;
21181;SDS011;10749;46.296;7.524;2023-02-28T14:43:55;12.10;;;8.10;;
21181;SDS011;10749;46.296;7.524;2023-02-28T14:46:23;8.80;;;7.80;;
21181;SDS011;10749;46.296;7.524;2023-02-28T14:48:51;8.63;;;7.73;;
21181;SDS011;10749;46.296;7.524;2023-02-28T14:51:18;9.47;;;8.03;;
21181;SDS011;10749;46.296;7.524;2023-02-28T14:53:46;9.93;;;7.97;;
21181;SDS011;10749;46.296;7.524;2023-02-28T14:56:48;8.67;;;7.63;;
21181;SDS011;10749;46.296;7.524;2023-02-28T15:04:52;8.83;;;7.93;;
21181;SDS011;10749;46.296;7.524;2023-02-28T15:07:18;9.67;;;8.20;;
21181;SDS011;10749;46.296;7.524;2023-02-28T15:09:43;10.00;;;8.07;;
21181;SDS011;10749;46.296;7.524;2023-02-28T15:12:11;9.77;;;8.40;;
21181;SDS011;10749;46.296;7.524;2023-02-28T15:14:39;9.70;;;7.73;;
21181;SDS011;10749;46.296;7.524;2023-02-28T15:17:11;10.27;;;7.90;;
21181;SDS011;10749;46.296;7.524;2023-02-28T15:19:46;11.03;;;8.50;;
21181;SDS011;10749;46.296;7.524;2023-02-28T15:22:17;10.63;;;8.70;;
21181;SDS011;10749;46.296;7.524;2023-02-28T15:24:49;10.07;;;8.80;;
21181;SDS011;10749;46.296;7.524;2023-02-28T15:27:20;9.27;;;8.20;;
21181;SDS011;10749;46.296;7.524;2023-02-28T15:29:50;14.77;;;8.23;;
21181;SDS011;10749;46.296;7.524;2023-02-28T15:34:56;11.93;;;8.80;;
21181;SDS011;10749;46.296;7.524;2023-02-28T15:39:52;9.80;;;7.63;;
21181;SDS011;10749;46.296;7.524;2023-02-28T15:42:20;9.70;;;7.97;;
21181;SDS011;10749;46.296;7.524;2023-02-28T15:44:46;10.13;;;8.07;;
21181;SDS011;10749;46.296;7.524;2023-02-28T15:47:19;9.73;;;8.20;;
21181;SDS011;10749;46.296;7.524;2023-02-28T15:49:56;10.13;;;7.87;;
21181;SDS011;10749;46.296;7.524;2023-02-28T15:57:38;10.27;;;8.53;;
21181;SDS011;10749;46.296;7.524;2023-02-28T16:00:05;10.27;;;8.80;;
21181;SDS011;10749;46.296;7.524;2023-02-28T16:02:37;9.53;;;8.53;;
21181;SDS011;10749;46.296;7.524;2023-02-28T16:07:30;10.57;;;8.13;;
21181;SDS011;10749;46.296;7.524;2023-02-28T16:09:56;10.17;;;8.37;;
21181;SDS011;10749;46.296;7.524;2023-02-28T16:12:24;13.17;;;9.10;;
21181;SDS011;10749;46.296;7.524;2023-02-28T16:14:55;10.30;;;8.87;;
21181;SDS011;10749;46.296;7.524;2023-02-28T16:17:24;17.47;;;8.60;;
21181;SDS011;10749;46.296;7.524;2023-02-28T16:19:51;15.63;;;9.03;;
21181;SDS011;10749;46.296;7.524;2023-02-28T16:22:17;10.67;;;8.50;;
21181;SDS011;10749;46.296;7.524;2023-02-28T16:24:43;14.27;;;9.03;;
21181;SDS011;10749;46.296;7.524;2023-02-28T16:27:30;9.97;;;8.80;;
21181;SDS011;10749;46.296;7.524;2023-02-28T16:29:57;11.53;;;8.67;;
21181;SDS011;10749;46.296;7.524;2023-02-28T16:32:23;12.50;;;9.03;;
21181;SDS011;10749;46.296;7.524;2023-02-28T16:34:48;10.77;;;8.87;;
21181;SDS011;10749;46.296;7.524;2023-02-28T16:37:14;12.77;;;8.90;;
21181;SDS011;10749;46.296;7.524;2023-02-28T16:39:42;11.10;;;9.80;;
21181;SDS011;10749;46.296;7.524;2023-02-28T16:42:15;11.63;;;9.00;;
21181;SDS011;10749;46.296;7.524;2023-02-28T16:44:46;13.40;;;9.07;;
21181;SDS011;10749;46.296;7.524;2023-02-28T16:47:12;10.33;;;9.10;;
21181;SDS011;10749;46.296;7.524;2023-02-28T16:49:38;14.63;;;9.30;;
21181;SDS011;10749;46.296;7.524;2023-02-28T16:52:04;13.33;;;9.20;;
21181;SDS011;10749;46.296;7.524;2023-02-28T16:54:30;15.23;;;9.53;;
21181;SDS011;10749;46.296;7.524;2023-02-28T16:56:56;14.30;;;9.00;;
21181;SDS011;10749;46.296;7.524;2023-02-28T16:59:22;11.63;;;9.47;;
21181;SDS011;10749;46.296;7.524;2023-02-28T17:01:50;14.63;;;11.03;;
21181;SDS011;10749;46.296;7.524;2023-02-28T17:04:16;13.37;;;11.10;;